createdAt,value
2022-12-18T00:01:32.159Z,44.63
2022-12-18T00:03:58.884Z,44.65
2022-12-18T00:06:26.005Z,51.65
2022-12-18T00:08:52.450Z,51.38
2022-12-18T00:11:20.479Z,51.15
2022-12-18T00:13:47.256Z,49.63
2022-12-18T00:16:15.263Z,49.10
2022-12-18T00:18:41.975Z,45.75
2022-12-18T00:21:09.893Z,48.75
2022-12-18T00:23:37.681Z,45.47
2022-12-18T00:26:05.553Z,50.55
2022-12-18T00:28:32.200Z,45.92
2022-12-18T00:31:02.210Z,42.55
2022-12-18T00:33:29.016Z,52.72
2022-12-18T00:35:55.325Z,44.92
2022-12-18T00:38:21.739Z,39.78
2022-12-18T00:40:48.018Z,46.42
2022-12-18T00:43:14.590Z,48.25
2022-12-18T00:45:42.124Z,42.20
2022-12-18T00:48:08.532Z,50.60
2022-12-18T00:50:35.355Z,49.42
2022-12-18T00:53:01.623Z,54.92
2022-12-18T00:55:27.872Z,55.08
2022-12-18T00:57:54.264Z,47.47
2022-12-18T01:00:20.671Z,51.53
2022-12-18T01:02:47.238Z,52.25
2022-12-18T01:05:13.793Z,57.20
2022-12-18T01:07:40.305Z,53.58
2022-12-18T01:10:07.353Z,47.80
2022-12-18T01:12:33.800Z,51.40
2022-12-18T01:15:00.130Z,49.28
2022-12-18T01:17:26.389Z,48.88
2022-12-18T01:19:52.678Z,44.05
2022-12-18T01:22:19.111Z,47.38
2022-12-18T01:24:45.538Z,45.42
2022-12-18T01:27:11.820Z,46.58
2022-12-18T01:29:38.120Z,42.33
2022-12-18T01:32:04.672Z,50.63
2022-12-18T01:34:31.054Z,43.65
2022-12-18T01:36:57.483Z,46.78
2022-12-18T01:39:23.947Z,54.38
2022-12-18T01:42:02.587Z,52.55
2022-12-18T01:44:47.878Z,49.87
2022-12-18T01:47:26.484Z,47.58
2022-12-18T01:49:53.535Z,45.15
2022-12-18T01:52:21.204Z,56.95
2022-12-18T01:54:48.367Z,50.07
2022-12-18T01:57:14.763Z,46.97
2022-12-18T01:59:42.158Z,46.15
2022-12-18T02:02:09.005Z,50.00
2022-12-18T02:04:35.436Z,52.80
2022-12-18T02:07:09.954Z,47.30
2022-12-18T02:09:47.419Z,46.08
2022-12-18T02:12:25.400Z,47.30
2022-12-18T02:15:03.854Z,47.57
2022-12-18T02:17:42.872Z,44.08
2022-12-18T02:20:09.297Z,51.78
2022-12-18T02:22:54.197Z,46.33
2022-12-18T02:25:32.775Z,52.13
2022-12-18T02:28:01.257Z,48.25
2022-12-18T02:30:30.287Z,49.08
2022-12-18T02:32:57.209Z,51.08
2022-12-18T02:35:25.542Z,43.90
2022-12-18T02:37:51.885Z,55.58
2022-12-18T02:40:19.388Z,44.92
2022-12-18T02:42:45.657Z,47.83
2022-12-18T02:45:12.168Z,48.58
2022-12-18T02:47:39.927Z,49.97
2022-12-18T02:50:17.321Z,47.17
2022-12-18T02:53:02.339Z,54.05
2022-12-18T02:55:28.698Z,51.45
2022-12-18T02:57:57.037Z,44.75
2022-12-18T03:00:39.568Z,52.95
2022-12-18T03:03:15.183Z,43.40
2022-12-18T03:08:13.639Z,42.95
2022-12-18T03:10:44.536Z,38.87
2022-12-18T03:13:14.570Z,45.90
2022-12-18T03:15:46.506Z,37.65
2022-12-18T03:18:18.469Z,47.08
2022-12-18T03:20:45.553Z,43.28
2022-12-18T03:23:13.999Z,53.40
2022-12-18T03:25:41.860Z,42.35
2022-12-18T03:28:10.861Z,43.45
2022-12-18T03:30:38.737Z,51.10
2022-12-18T03:33:20.631Z,43.47
2022-12-18T03:35:47.052Z,46.38
2022-12-18T03:38:13.982Z,42.63
2022-12-18T03:40:40.790Z,44.63
2022-12-18T03:43:11.969Z,40.20
2022-12-18T03:45:45.817Z,40.67
2022-12-18T03:48:19.761Z,40.90
2022-12-18T03:50:46.145Z,41.03
2022-12-18T03:53:12.454Z,34.15
2022-12-18T03:55:39.265Z,34.95
2022-12-18T03:58:07.876Z,39.15
2022-12-18T04:00:34.841Z,34.00
2022-12-18T04:03:01.787Z,39.53
2022-12-18T04:05:29.232Z,38.60
2022-12-18T04:07:55.894Z,39.25
2022-12-18T04:10:22.273Z,38.83
2022-12-18T04:12:48.792Z,36.97
2022-12-18T04:15:15.466Z,32.25
2022-12-18T04:17:47.588Z,33.78
2022-12-18T04:20:13.928Z,30.40
2022-12-18T04:22:40.219Z,31.53
2022-12-18T04:25:07.780Z,31.77
2022-12-18T04:27:34.159Z,30.47
2022-12-18T04:30:00.426Z,28.13
2022-12-18T04:32:26.891Z,26.77
2022-12-18T04:34:53.470Z,30.33
2022-12-18T04:37:19.742Z,29.17
2022-12-18T04:39:46.028Z,30.17
2022-12-18T04:42:12.743Z,25.80
2022-12-18T04:44:39.107Z,22.70
2022-12-18T04:47:05.376Z,28.02
2022-12-18T04:49:31.665Z,34.90
2022-12-18T04:51:57.916Z,28.37
2022-12-18T04:54:24.213Z,26.25
2022-12-18T04:56:50.638Z,27.95
2022-12-18T04:59:16.966Z,25.97
2022-12-18T05:01:44.037Z,26.58
2022-12-18T05:04:11.050Z,23.77
2022-12-18T05:06:37.458Z,30.17
2022-12-18T05:09:04.173Z,29.50
2022-12-18T05:11:30.483Z,24.67
2022-12-18T05:13:56.902Z,24.73
2022-12-18T05:16:23.277Z,25.08
2022-12-18T05:18:49.764Z,24.67
2022-12-18T05:21:16.134Z,30.77
2022-12-18T05:23:43.029Z,22.80
2022-12-18T05:26:09.830Z,22.95
2022-12-18T05:28:36.623Z,20.27
2022-12-18T05:31:03.915Z,22.83
2022-12-18T05:33:31.345Z,22.30
2022-12-18T05:35:58.862Z,22.70
2022-12-18T05:38:25.749Z,20.57
2022-12-18T05:40:52.371Z,18.93
2022-12-18T05:43:21.522Z,19.80
2022-12-18T05:45:48.519Z,27.03
2022-12-18T05:48:15.120Z,22.40
2022-12-18T05:50:42.714Z,21.63
2022-12-18T05:53:09.241Z,20.00
2022-12-18T05:55:36.077Z,18.77
2022-12-18T05:58:02.832Z,26.27
2022-12-18T06:00:29.296Z,20.43
2022-12-18T06:02:55.770Z,27.83
2022-12-18T06:05:22.284Z,22.37
2022-12-18T06:07:48.617Z,20.07
2022-12-18T06:10:14.972Z,19.30
2022-12-18T06:12:41.988Z,22.77
2022-12-18T06:15:08.724Z,30.25
2022-12-18T06:17:35.330Z,22.50
2022-12-18T06:20:02.241Z,23.13
2022-12-18T06:22:28.572Z,17.77
2022-12-18T06:24:57.027Z,21.43
2022-12-18T06:27:23.770Z,20.77
2022-12-18T06:29:50.123Z,23.13
2022-12-18T06:32:16.426Z,20.07
2022-12-18T06:34:43.701Z,22.40
2022-12-18T06:37:10.022Z,22.43
2022-12-18T06:39:36.421Z,21.73
2022-12-18T06:42:02.749Z,23.07
2022-12-18T06:44:29.070Z,20.30
2022-12-18T06:46:55.680Z,20.30
2022-12-18T06:49:24.152Z,22.00
2022-12-18T06:51:53.747Z,20.67
2022-12-18T06:54:20.028Z,23.93
2022-12-18T06:56:46.799Z,22.10
2022-12-18T06:59:13.804Z,19.87
2022-12-18T07:01:40.246Z,26.60
2022-12-18T07:04:07.067Z,22.73
2022-12-18T07:06:33.377Z,23.00
2022-12-18T07:08:59.695Z,21.33
2022-12-18T07:11:26.052Z,24.53
2022-12-18T07:13:53.106Z,21.47
2022-12-18T07:16:24.705Z,19.13
2022-12-18T07:18:51.496Z,21.97
2022-12-18T07:21:19.315Z,24.67
2022-12-18T07:23:48.644Z,23.90
2022-12-18T07:26:16.136Z,21.13
2022-12-18T07:28:42.950Z,23.13
2022-12-18T07:31:13.825Z,22.13
2022-12-18T07:33:40.485Z,21.13
2022-12-18T07:36:08.172Z,20.80
2022-12-18T07:38:35.189Z,17.90
2022-12-18T07:41:06.723Z,20.03
2022-12-18T07:43:33.300Z,20.73
2022-12-18T07:45:59.624Z,18.40
2022-12-18T07:48:25.925Z,18.53
2022-12-18T07:50:52.456Z,20.40
2022-12-18T07:53:18.796Z,24.33
2022-12-18T07:56:17.947Z,17.93
2022-12-18T07:58:31.597Z,23.53
2022-12-18T08:01:08.314Z,19.43
2022-12-18T08:03:34.704Z,20.87
2022-12-18T08:06:01.712Z,16.73
2022-12-18T08:08:28.388Z,20.83
2022-12-18T08:10:54.700Z,17.17
2022-12-18T08:13:20.972Z,20.23
2022-12-18T08:15:47.500Z,17.27
2022-12-18T08:18:14.522Z,17.87
2022-12-18T08:20:42.805Z,17.60
2022-12-18T08:23:09.140Z,19.43
2022-12-18T08:25:35.522Z,21.77
2022-12-18T08:28:01.826Z,18.20
2022-12-18T08:30:28.292Z,21.33
2022-12-18T08:32:55.061Z,20.17
2022-12-18T08:35:21.819Z,17.42
2022-12-18T08:37:48.112Z,18.08
2022-12-18T08:40:14.377Z,22.30
2022-12-18T08:42:59.641Z,20.27
2022-12-18T08:45:26.014Z,20.77
2022-12-18T08:47:53.392Z,21.92
2022-12-18T08:50:20.357Z,23.67
2022-12-18T08:52:46.668Z,18.87
2022-12-18T08:55:13.944Z,18.43
2022-12-18T08:57:40.195Z,17.33
2022-12-18T09:00:06.999Z,19.70
2022-12-18T09:02:33.897Z,18.63
2022-12-18T09:05:00.283Z,22.35
2022-12-18T09:07:27.785Z,21.43
2022-12-18T09:09:54.195Z,26.05
2022-12-18T09:12:20.575Z,23.05
2022-12-18T09:14:46.832Z,20.05
2022-12-18T09:17:13.149Z,22.43
2022-12-18T09:19:39.549Z,20.83
2022-12-18T09:22:06.366Z,20.37
2022-12-18T09:24:32.675Z,19.88
2022-12-18T09:26:58.969Z,20.25
2022-12-18T09:29:25.341Z,16.80
2022-12-18T09:31:51.665Z,22.13
2022-12-18T09:34:17.930Z,18.65
2022-12-18T09:36:44.430Z,27.90
2022-12-18T09:39:11.030Z,20.92
2022-12-18T09:41:56.859Z,20.13
2022-12-18T09:44:31.870Z,17.42
2022-12-18T09:46:58.413Z,20.85
2022-12-18T09:49:27.630Z,25.70
2022-12-18T09:51:57.590Z,23.17
2022-12-18T09:54:26.981Z,21.00
2022-12-18T09:56:54.179Z,18.88
2022-12-18T09:59:31.687Z,17.63
2022-12-18T10:01:58.057Z,17.00
2022-12-18T10:04:25.153Z,21.38
2022-12-18T10:07:08.908Z,18.23
2022-12-18T10:09:39.945Z,16.17
2022-12-18T10:12:24.714Z,19.88
2022-12-18T10:15:09.911Z,16.27
2022-12-18T10:17:42.187Z,20.48
2022-12-18T10:20:16.856Z,22.35
2022-12-18T10:22:52.078Z,19.83
2022-12-18T10:25:23.729Z,20.45
2022-12-18T10:27:53.103Z,14.95
2022-12-18T10:30:20.495Z,14.10
2022-12-18T10:32:46.908Z,18.38
2022-12-18T10:35:18.938Z,16.95
2022-12-18T10:38:05.557Z,17.63
2022-12-18T10:40:32.259Z,17.05
2022-12-18T10:43:24.897Z,18.02
2022-12-18T10:46:03.706Z,18.13
2022-12-18T10:48:31.460Z,13.93
2022-12-18T10:51:13.812Z,15.73
2022-12-18T10:53:41.152Z,14.25
2022-12-18T10:56:07.747Z,15.40
2022-12-18T10:58:38.223Z,15.45
2022-12-18T11:01:07.621Z,12.90
2022-12-18T11:03:34.036Z,17.05
2022-12-18T11:06:08.248Z,17.20
2022-12-18T11:08:34.615Z,16.45
2022-12-18T11:11:00.888Z,16.38
2022-12-18T11:13:28.541Z,18.08
2022-12-18T11:15:55.656Z,18.38
2022-12-18T11:18:33.711Z,14.45
2022-12-18T11:21:11.104Z,14.40
2022-12-18T11:23:38.409Z,20.77
2022-12-18T11:26:06.901Z,15.57
2022-12-18T11:28:38.692Z,14.02
2022-12-18T11:31:24.357Z,16.75
2022-12-18T11:34:26.903Z,15.48
2022-12-18T11:36:42.232Z,15.48
2022-12-18T11:39:20.627Z,18.77
2022-12-18T11:42:13.254Z,17.27
2022-12-18T11:44:58.227Z,17.00
2022-12-18T11:47:43.927Z,15.30
2022-12-18T11:50:18.619Z,16.05
2022-12-18T11:52:44.986Z,15.77
2022-12-18T11:55:13.071Z,18.60
2022-12-18T11:57:48.585Z,12.95
2022-12-18T12:00:20.909Z,14.77
2022-12-18T12:03:06.129Z,11.90
2022-12-18T12:05:39.213Z,15.02
2022-12-18T12:08:24.004Z,14.07
2022-12-18T12:10:50.250Z,12.63
2022-12-18T12:13:16.489Z,14.60
2022-12-18T12:16:01.545Z,16.95
2022-12-18T12:18:50.942Z,15.20
2022-12-18T12:21:30.103Z,18.80
2022-12-18T12:24:03.120Z,20.50
2022-12-18T12:26:50.949Z,16.92
2022-12-18T12:29:38.614Z,16.52
2022-12-18T12:32:16.890Z,17.60
2022-12-18T12:35:07.713Z,17.23
2022-12-18T12:37:42.253Z,12.35
2022-12-18T12:40:48.330Z,15.25
2022-12-18T12:43:14.344Z,16.40
2022-12-18T12:45:47.578Z,15.15
2022-12-18T12:48:19.878Z,35.30
2022-12-18T12:50:47.368Z,17.67
2022-12-18T12:53:20.079Z,17.30
2022-12-18T12:55:46.458Z,14.23
2022-12-18T12:58:13.093Z,14.18
2022-12-18T13:00:47.545Z,15.25
2022-12-18T13:03:24.286Z,20.48
2022-12-18T13:05:54.075Z,14.40
2022-12-18T13:08:31.198Z,16.92
2022-12-18T13:11:20.510Z,19.17
2022-12-18T13:13:55.254Z,16.63
2022-12-18T13:16:26.528Z,18.67
2022-12-18T13:18:58.702Z,15.23
2022-12-18T13:21:33.585Z,16.80
2022-12-18T13:24:30.580Z,16.80
2022-12-18T13:26:57.098Z,15.98
2022-12-18T13:29:41.341Z,17.17
2022-12-18T13:32:29.729Z,17.95
2022-12-18T13:35:31.690Z,18.15
2022-12-18T13:37:58.337Z,22.98
2022-12-18T13:40:39.435Z,16.27
2022-12-18T13:43:20.621Z,17.48
2022-12-18T13:45:59.608Z,20.95
2022-12-18T13:48:27.114Z,18.67
2022-12-18T13:50:59.658Z,18.00
2022-12-18T13:53:28.682Z,17.00
2022-12-18T13:55:55.393Z,15.57
2022-12-18T13:58:21.826Z,17.85
2022-12-18T14:00:49.108Z,16.98
2022-12-18T14:03:29.437Z,16.95
2022-12-18T14:06:01.188Z,19.50
2022-12-18T14:08:31.929Z,17.00
2022-12-18T14:10:58.281Z,15.98
2022-12-18T14:13:24.547Z,15.73
2022-12-18T14:15:51.121Z,18.17
2022-12-18T14:18:35.628Z,19.73
2022-12-18T14:21:03.326Z,18.65
2022-12-18T14:23:35.613Z,19.77
2022-12-18T14:26:05.953Z,16.80
2022-12-18T14:28:32.778Z,19.65
2022-12-18T14:30:59.229Z,17.83
2022-12-18T14:33:26.876Z,17.77
2022-12-18T14:35:55.549Z,18.38
2022-12-18T14:38:29.235Z,18.13
2022-12-18T14:41:06.748Z,18.98
2022-12-18T14:43:34.594Z,16.83
2022-12-18T14:46:01.637Z,20.25
2022-12-18T14:48:42.190Z,22.75
2022-12-18T14:51:11.608Z,20.35
2022-12-18T14:53:47.595Z,19.40
2022-12-18T14:56:30.290Z,20.30
2022-12-18T14:58:58.416Z,19.00
2022-12-18T15:01:25.983Z,18.63
2022-12-18T15:03:53.700Z,19.50
2022-12-18T15:06:41.285Z,19.88
2022-12-18T15:09:22.718Z,19.08
2022-12-18T15:11:49.075Z,20.05
2022-12-18T15:14:30.892Z,16.83
2022-12-18T15:16:58.157Z,16.55
2022-12-18T15:19:28.585Z,22.20
2022-12-18T15:21:54.877Z,16.50
2022-12-18T15:24:24.708Z,19.85
2022-12-18T15:26:51.020Z,18.23
2022-12-18T15:29:22.560Z,20.52
2022-12-18T15:32:05.300Z,23.83
2022-12-18T15:34:32.329Z,20.98
2022-12-18T15:36:58.730Z,22.45
2022-12-18T15:39:27.489Z,20.42
2022-12-18T15:42:12.245Z,21.48
2022-12-18T15:44:38.916Z,17.38
2022-12-18T15:47:09.964Z,20.27
2022-12-18T15:49:36.535Z,16.25
2022-12-18T15:52:03.135Z,19.88
2022-12-18T15:54:48.453Z,19.00
2022-12-18T15:57:23.974Z,22.63
2022-12-18T15:59:54.250Z,22.10
2022-12-18T16:02:23.656Z,20.65
2022-12-18T16:04:51.638Z,18.67
2022-12-18T16:07:19.291Z,18.35
2022-12-18T16:09:47.870Z,21.35
2022-12-18T16:12:19.028Z,23.40
2022-12-18T16:14:45.720Z,21.83
2022-12-18T16:17:13.470Z,20.95
2022-12-18T16:19:39.883Z,26.35
2022-12-18T16:22:06.228Z,21.00
2022-12-18T16:24:34.113Z,20.38
2022-12-18T16:27:00.884Z,20.58
2022-12-18T16:29:28.466Z,20.52
2022-12-18T16:31:55.702Z,18.55
2022-12-18T16:34:26.053Z,20.45
2022-12-18T16:36:57.939Z,20.02
2022-12-18T16:39:28.012Z,22.10
2022-12-18T16:41:54.318Z,18.92
2022-12-18T16:44:21.273Z,21.73
2022-12-18T16:46:47.868Z,21.67
2022-12-18T16:49:14.956Z,20.88
2022-12-18T16:51:41.650Z,22.45
2022-12-18T16:54:11.715Z,20.13
2022-12-18T16:56:43.187Z,19.10
2022-12-18T16:59:11.423Z,19.55
2022-12-18T17:01:37.808Z,27.55
2022-12-18T17:04:06.046Z,21.23
2022-12-18T17:06:33.725Z,22.77
2022-12-18T17:09:00.825Z,21.08
2022-12-18T17:11:27.847Z,21.17
2022-12-18T17:13:55.560Z,21.48
2022-12-18T17:16:22.313Z,21.38
2022-12-18T17:18:48.802Z,22.30
2022-12-18T17:21:15.723Z,21.13
2022-12-18T17:23:43.740Z,21.92
2022-12-18T17:26:11.567Z,33.63
2022-12-18T17:28:38.736Z,23.20
2022-12-18T17:31:13.250Z,25.30
2022-12-18T17:33:40.004Z,22.27
2022-12-18T17:36:06.771Z,22.90
2022-12-18T17:38:33.555Z,22.42
2022-12-18T17:41:03.589Z,22.52
2022-12-18T17:43:30.142Z,25.27
2022-12-18T17:45:56.909Z,21.63
2022-12-18T17:48:24.504Z,23.88
2022-12-18T17:50:51.340Z,21.92
2022-12-18T17:53:17.618Z,26.02
2022-12-18T17:55:44.395Z,22.77
2022-12-18T17:58:11.108Z,23.63
2022-12-18T18:00:38.830Z,26.27
2022-12-18T18:03:05.307Z,20.95
2022-12-18T18:05:31.752Z,25.40
2022-12-18T18:07:58.829Z,23.42
2022-12-18T18:10:25.119Z,20.05
2022-12-18T18:13:09.998Z,23.40
2022-12-18T18:15:39.520Z,24.88
2022-12-18T18:18:06.136Z,26.63
2022-12-18T18:20:32.590Z,20.98
2022-12-18T18:22:58.882Z,21.15
2022-12-18T18:25:25.270Z,27.23
2022-12-18T18:27:52.200Z,22.40
2022-12-18T18:30:18.617Z,25.70
2022-12-18T18:32:46.297Z,26.20
2022-12-18T18:35:37.561Z,25.73
2022-12-18T18:37:59.628Z,23.77
2022-12-18T18:40:25.975Z,31.92
2022-12-18T18:42:55.675Z,22.63
2022-12-18T18:45:22.012Z,25.48
2022-12-18T18:47:50.702Z,24.35
2022-12-18T18:50:17.014Z,31.98
2022-12-18T18:52:43.335Z,22.65
2022-12-18T18:55:20.980Z,25.67
2022-12-18T18:57:52.215Z,24.85
2022-12-18T19:00:18.717Z,23.38
2022-12-18T19:02:45.584Z,25.00
2022-12-18T19:05:12.397Z,23.35
2022-12-18T19:07:38.684Z,23.52
2022-12-18T19:10:05.625Z,24.42
2022-12-18T19:12:50.763Z,22.95
2022-12-18T19:15:17.213Z,28.20
2022-12-18T19:17:46.684Z,26.38
2022-12-18T19:20:14.270Z,24.23
2022-12-18T19:22:40.572Z,23.77
2022-12-18T19:25:07.245Z,25.38
2022-12-18T19:27:36.413Z,26.00
2022-12-18T19:30:02.759Z,27.48
2022-12-18T19:32:29.129Z,25.95
2022-12-18T19:34:55.489Z,26.50
2022-12-18T19:37:22.762Z,25.45
2022-12-18T19:39:49.341Z,27.67
2022-12-18T19:42:17.908Z,23.55
2022-12-18T19:44:47.830Z,20.42
2022-12-18T19:47:14.489Z,26.52
2022-12-18T19:49:40.836Z,25.27
2022-12-18T19:52:07.547Z,22.27
2022-12-18T19:54:33.937Z,27.13
2022-12-18T19:57:00.343Z,28.70
2022-12-18T19:59:27.215Z,25.17
2022-12-18T20:01:54.370Z,31.25
2022-12-18T20:04:20.891Z,30.15
2022-12-18T20:06:53.713Z,24.27
2022-12-18T20:09:20.585Z,25.20
2022-12-18T20:11:48.428Z,24.40
2022-12-18T20:14:18.483Z,27.23
2022-12-18T20:16:49.706Z,28.40
2022-12-18T20:19:16.645Z,29.88
2022-12-18T20:21:44.399Z,41.63
2022-12-18T20:24:11.429Z,31.52
2022-12-18T20:26:37.684Z,25.25
2022-12-18T20:29:03.926Z,28.08
2022-12-18T20:31:30.527Z,27.38
2022-12-18T20:33:59.725Z,33.70
2022-12-18T20:36:28.292Z,28.70
2022-12-18T20:38:58.059Z,25.88
2022-12-18T20:41:27.375Z,30.73
2022-12-18T20:44:04.367Z,29.55
2022-12-18T20:46:30.728Z,29.25
2022-12-18T20:48:57.098Z,27.63
2022-12-18T20:51:23.621Z,28.70
2022-12-18T20:53:50.264Z,31.17
2022-12-18T20:56:20.822Z,28.13
2022-12-18T20:58:48.449Z,30.27
2022-12-18T21:01:16.596Z,36.85
2022-12-18T21:03:43.587Z,30.20
2022-12-18T21:06:10.631Z,29.25
2022-12-18T21:08:37.157Z,29.17
2022-12-18T21:11:33.675Z,29.65
2022-12-18T21:16:26.362Z,30.67
2022-12-18T21:18:53.393Z,33.03
2022-12-18T21:21:26.205Z,29.58
2022-12-18T21:23:53.419Z,25.02
2022-12-18T21:26:26.531Z,30.27
2022-12-18T21:28:54.476Z,30.90
2022-12-18T21:31:21.025Z,32.20
2022-12-18T21:33:47.328Z,31.63
2022-12-18T21:36:15.537Z,31.15
2022-12-18T21:38:42.444Z,43.75
2022-12-18T21:41:09.820Z,33.47
2022-12-18T21:43:57.691Z,31.60
2022-12-18T21:46:24.056Z,31.30
2022-12-18T21:48:51.729Z,31.30
2022-12-18T21:51:18.111Z,38.22
2022-12-18T21:53:44.998Z,34.15
2022-12-18T21:56:13.464Z,36.53
2022-12-18T21:58:39.837Z,28.50
2022-12-18T22:01:23.463Z,34.22
2022-12-18T22:03:49.908Z,29.25
2022-12-18T22:06:16.258Z,33.60
2022-12-18T22:08:43.997Z,37.22
2022-12-18T22:11:12.614Z,30.88
2022-12-18T22:13:39.005Z,34.08
2022-12-18T22:16:06.601Z,36.22
2022-12-18T22:18:33.059Z,34.92
2022-12-18T22:21:03.330Z,36.75
2022-12-18T22:23:29.782Z,32.63
2022-12-18T22:25:56.294Z,35.45
2022-12-18T22:28:41.536Z,41.13
2022-12-18T22:31:08.010Z,38.35
2022-12-18T22:33:34.807Z,39.17
2022-12-18T22:36:04.825Z,34.38
2022-12-18T22:38:33.434Z,33.97
2022-12-18T22:40:59.765Z,36.97
2022-12-18T22:43:26.069Z,39.28
2022-12-18T22:45:52.366Z,35.95
2022-12-18T22:48:18.641Z,34.42
2022-12-18T22:50:45.468Z,35.75
2022-12-18T22:53:12.728Z,36.10
2022-12-18T22:55:39.153Z,39.85
2022-12-18T22:58:05.437Z,39.22
2022-12-18T23:00:31.721Z,44.90
2022-12-18T23:03:00.965Z,36.03
2022-12-18T23:05:28.287Z,31.90
2022-12-18T23:07:54.597Z,38.13
2022-12-18T23:10:21.026Z,37.35
2022-12-18T23:12:47.371Z,42.65
2022-12-18T23:15:13.752Z,32.92
2022-12-18T23:17:42.684Z,34.13
2022-12-18T23:20:09.178Z,33.83
2022-12-18T23:22:35.451Z,42.75
2022-12-18T23:25:01.733Z,39.60
2022-12-18T23:27:28.009Z,32.70
2022-12-18T23:29:54.353Z,36.83
2022-12-18T23:32:21.909Z,38.83
2022-12-18T23:34:48.212Z,37.97
2022-12-18T23:37:35.346Z,40.53
2022-12-18T23:40:01.065Z,39.05
2022-12-18T23:42:27.378Z,44.17
2022-12-18T23:44:54.390Z,36.00
2022-12-18T23:47:20.743Z,47.50
2022-12-18T23:49:47.084Z,37.90
2022-12-18T23:52:13.640Z,43.35
2022-12-18T23:54:39.970Z,37.53
2022-12-18T23:57:06.607Z,39.95
2022-12-18T23:59:32.923Z,40.90
